sensor_id;sensor_type;location;lat;lon;timestamp;pressure;altitude;pressure_sealevel;temperature;humidity
34297;BME280;20564;42.902;25.336;2022-09-13T00:01:35;96907.19;;;13.82;100.00
34297;BME280;20564;42.902;25.336;2022-09-13T00:04:03;96908.16;;;13.81;100.00
34297;BME280;20564;42.902;25.336;2022-09-13T00:06:30;96900.41;;;13.80;100.00
34297;BME280;20564;42.902;25.336;2022-09-13T00:08:57;96899.75;;;13.86;100.00
34297;BME280;20564;42.902;25.336;2022-09-13T00:11:28;96898.38;;;13.98;100.00
34297;BME280;20564;42.902;25.336;2022-09-13T00:13:57;96892.13;;;13.91;100.00
34297;BME280;20564;42.902;25.336;2022-09-13T00:16:27;96893.75;;;13.92;100.00
34297;BME280;20564;42.902;25.336;2022-09-13T00:18:55;96899.03;;;13.92;100.00
34297;BME280;20564;42.902;25.336;2022-09-13T00:21:23;96896.59;;;13.90;100.00
34297;BME280;20564;42.902;25.336;2022-09-13T00:23:52;96897.41;;;13.91;100.00
34297;BME280;20564;42.902;25.336;2022-09-13T00:26:25;96891.13;;;13.92;100.00
34297;BME280;20564;42.902;25.336;2022-09-13T00:28:55;96884.00;;;13.92;100.00
34297;BME280;20564;42.902;25.336;2022-09-13T00:31:23;96884.31;;;13.89;99.85
34297;BME280;20564;42.902;25.336;2022-09-13T00:33:54;96890.47;;;13.82;100.00
34297;BME280;20564;42.902;25.336;2022-09-13T00:36:22;96883.84;;;13.78;100.00
34297;BME280;20564;42.902;25.336;2022-09-13T00:38:50;96889.16;;;13.69;99.78
34297;BME280;20564;42.902;25.336;2022-09-13T00:41:19;96894.63;;;13.60;100.00
34297;BME280;20564;42.902;25.336;2022-09-13T00:43:49;96899.78;;;13.53;100.00
34297;BME280;20564;42.902;25.336;2022-09-13T00:46:40;96884.22;;;13.50;100.00
34297;BME280;20564;42.902;25.336;2022-09-13T00:49:14;96897.09;;;13.45;100.00
34297;BME280;20564;42.902;25.336;2022-09-13T00:51:57;96899.75;;;13.37;100.00
34297;BME280;20564;42.902;25.336;2022-09-13T00:54:29;96900.25;;;13.32;100.00
34297;BME280;20564;42.902;25.336;2022-09-13T00:57:01;96898.44;;;13.33;100.00
34297;BME280;20564;42.902;25.336;2022-09-13T01:00:01;96901.91;;;13.33;100.00
34297;BME280;20564;42.902;25.336;2022-09-13T01:02:35;96897.78;;;13.39;100.00
34297;BME280;20564;42.902;25.336;2022-09-13T01:05:03;96899.56;;;13.30;100.00
34297;BME280;20564;42.902;25.336;2022-09-13T01:07:31;96896.94;;;13.30;100.00
34297;BME280;20564;42.902;25.336;2022-09-13T01:10:01;96888.19;;;13.30;100.00
34297;BME280;20564;42.902;25.336;2022-09-13T01:12:31;96895.78;;;13.24;100.00
34297;BME280;20564;42.902;25.336;2022-09-13T01:15:03;96895.09;;;13.22;100.00
34297;BME280;20564;42.902;25.336;2022-09-13T01:17:32;96888.47;;;13.18;100.00
34297;BME280;20564;42.902;25.336;2022-09-13T01:20:00;96893.41;;;13.05;100.00
34297;BME280;20564;42.902;25.336;2022-09-13T01:34:25;96876.25;;;13.09;100.00
34297;BME280;20564;42.902;25.336;2022-09-13T01:40:14;96882.19;;;13.19;100.00
34297;BME280;20564;42.902;25.336;2022-09-13T01:42:59;96872.44;;;13.12;100.00
34297;BME280;20564;42.902;25.336;2022-09-13T01:45:55;96868.66;;;13.14;100.00
34297;BME280;20564;42.902;25.336;2022-09-13T01:49:01;96872.94;;;13.07;100.00
34297;BME280;20564;42.902;25.336;2022-09-13T01:52:04;96869.63;;;13.05;100.00
34297;BME280;20564;42.902;25.336;2022-09-13T01:57:16;96871.78;;;13.10;100.00
34297;BME280;20564;42.902;25.336;2022-09-13T01:59:52;96872.94;;;13.07;100.00
34297;BME280;20564;42.902;25.336;2022-09-13T02:08:18;96862.00;;;12.77;100.00
34297;BME280;20564;42.902;25.336;2022-09-13T02:11:09;96860.69;;;12.73;100.00
34297;BME280;20564;42.902;25.336;2022-09-13T02:13:53;96862.00;;;12.69;100.00
34297;BME280;20564;42.902;25.336;2022-09-13T02:16:37;96865.44;;;12.70;100.00
34297;BME280;20564;42.902;25.336;2022-09-13T02:19:13;96860.81;;;12.72;100.00
34297;BME280;20564;42.902;25.336;2022-09-13T02:21:45;96857.34;;;12.71;100.00
34297;BME280;20564;42.902;25.336;2022-09-13T02:24:17;96851.75;;;12.74;100.00
34297;BME280;20564;42.902;25.336;2022-09-13T02:26:46;96850.94;;;12.82;100.00
34297;BME280;20564;42.902;25.336;2022-09-13T02:29:19;96849.63;;;12.86;100.00
34297;BME280;20564;42.902;25.336;2022-09-13T02:32:00;96848.16;;;12.92;100.00
34297;BME280;20564;42.902;25.336;2022-09-13T02:34:40;96846.19;;;13.02;100.00
34297;BME280;20564;42.902;25.336;2022-09-13T02:37:09;96856.25;;;13.15;100.00
34297;BME280;20564;42.902;25.336;2022-09-13T02:39:48;96854.13;;;13.18;100.00
34297;BME280;20564;42.902;25.336;2022-09-13T02:42:22;96855.66;;;13.29;100.00
34297;BME280;20564;42.902;25.336;2022-09-13T02:44:53;96852.34;;;13.35;100.00
34297;BME280;20564;42.902;25.336;2022-09-13T02:50:31;96846.03;;;13.44;100.00
34297;BME280;20564;42.902;25.336;2022-09-13T03:00:49;96860.75;;;13.71;99.68
34297;BME280;20564;42.902;25.336;2022-09-13T03:03:16;96860.38;;;13.74;99.20
34297;BME280;20564;42.902;25.336;2022-09-13T03:05:44;96854.13;;;13.75;98.61
34297;BME280;20564;42.902;25.336;2022-09-13T03:08:13;96856.06;;;13.82;97.39
34297;BME280;20564;42.902;25.336;2022-09-13T03:11:30;96861.22;;;13.83;96.04
34297;BME280;20564;42.902;25.336;2022-09-13T03:14:07;96849.13;;;13.89;94.55
34297;BME280;20564;42.902;25.336;2022-09-13T03:16:44;96855.72;;;13.93;95.30
34297;BME280;20564;42.902;25.336;2022-09-13T03:24:57;96848.63;;;13.93;96.41
34297;BME280;20564;42.902;25.336;2022-09-13T03:30:36;96847.66;;;13.86;96.44
34297;BME280;20564;42.902;25.336;2022-09-13T03:38:56;96863.38;;;13.80;97.49
34297;BME280;20564;42.902;25.336;2022-09-13T03:41:43;96865.66;;;13.74;98.42
34297;BME280;20564;42.902;25.336;2022-09-13T03:44:24;96862.56;;;13.63;98.83
34297;BME280;20564;42.902;25.336;2022-09-13T03:46:57;96854.81;;;13.61;99.25
34297;BME280;20564;42.902;25.336;2022-09-13T03:49:31;96863.22;;;13.48;99.90
34297;BME280;20564;42.902;25.336;2022-09-13T03:52:01;96854.16;;;13.43;99.38
34297;BME280;20564;42.902;25.336;2022-09-13T03:54:30;96867.03;;;13.30;100.00
34297;BME280;20564;42.902;25.336;2022-09-13T03:57:09;96855.75;;;13.19;100.00
34297;BME280;20564;42.902;25.336;2022-09-13T03:59:39;96856.44;;;13.13;100.00
34297;BME280;20564;42.902;25.336;2022-09-13T04:02:07;96860.72;;;13.06;100.00
34297;BME280;20564;42.902;25.336;2022-09-13T04:04:39;96861.19;;;13.01;100.00
34297;BME280;20564;42.902;25.336;2022-09-13T04:07:30;96862.88;;;13.02;100.00
34297;BME280;20564;42.902;25.336;2022-09-13T04:10:02;96856.25;;;12.98;100.00
34297;BME280;20564;42.902;25.336;2022-09-13T04:12:31;96858.41;;;12.95;100.00
34297;BME280;20564;42.902;25.336;2022-09-13T04:15:19;96867.34;;;13.02;100.00
34297;BME280;20564;42.902;25.336;2022-09-13T04:17:49;96875.41;;;13.00;100.00
34297;BME280;20564;42.902;25.336;2022-09-13T04:20:19;96877.53;;;12.97;100.00
34297;BME280;20564;42.902;25.336;2022-09-13T04:22:55;96867.66;;;12.91;100.00
34297;BME280;20564;42.902;25.336;2022-09-13T04:25:28;96871.25;;;12.90;100.00
34297;BME280;20564;42.902;25.336;2022-09-13T04:27:58;96865.97;;;12.82;100.00
34297;BME280;20564;42.902;25.336;2022-09-13T04:30:42;96870.72;;;12.70;100.00
34297;BME280;20564;42.902;25.336;2022-09-13T04:33:12;96875.50;;;12.66;100.00
34297;BME280;20564;42.902;25.336;2022-09-13T04:35:39;96882.75;;;12.64;100.00
34297;BME280;20564;42.902;25.336;2022-09-13T04:38:06;96864.75;;;12.60;100.00
34297;BME280;20564;42.902;25.336;2022-09-13T04:40:34;96876.50;;;12.65;100.00
34297;BME280;20564;42.902;25.336;2022-09-13T04:43:03;96868.22;;;12.60;100.00
34297;BME280;20564;42.902;25.336;2022-09-13T04:45:30;96867.88;;;12.55;100.00
34297;BME280;20564;42.902;25.336;2022-09-13T04:47:57;96886.25;;;12.73;100.00
34297;BME280;20564;42.902;25.336;2022-09-13T04:50:24;96891.19;;;12.76;100.00
34297;BME280;20564;42.902;25.336;2022-09-13T04:52:54;96884.97;;;12.85;100.00
34297;BME280;20564;42.902;25.336;2022-09-13T04:55:36;96880.16;;;12.81;100.00
34297;BME280;20564;42.902;25.336;2022-09-13T05:01:05;96898.34;;;13.00;100.00
34297;BME280;20564;42.902;25.336;2022-09-13T05:03:39;96902.50;;;13.11;100.00
34297;BME280;20564;42.902;25.336;2022-09-13T05:06:16;96900.69;;;13.11;100.00
34297;BME280;20564;42.902;25.336;2022-09-13T05:08:55;96899.41;;;13.23;100.00
34297;BME280;20564;42.902;25.336;2022-09-13T05:11:29;96913.16;;;13.35;100.00
34297;BME280;20564;42.902;25.336;2022-09-13T05:13:59;96903.72;;;13.49;100.00
34297;BME280;20564;42.902;25.336;2022-09-13T05:16:29;96898.44;;;13.65;100.00
34297;BME280;20564;42.902;25.336;2022-09-13T05:18:57;96905.03;;;13.78;96.60
34297;BME280;20564;42.902;25.336;2022-09-13T05:21:25;96902.69;;;13.91;95.70
34297;BME280;20564;42.902;25.336;2022-09-13T05:23:54;96905.63;;;14.12;94.21
34297;BME280;20564;42.902;25.336;2022-09-13T05:32:50;96899.16;;;15.02;89.33
34297;BME280;20564;42.902;25.336;2022-09-13T05:35:17;96894.78;;;15.32;88.65
34297;BME280;20564;42.902;25.336;2022-09-13T05:37:45;96898.38;;;15.62;87.14
34297;BME280;20564;42.902;25.336;2022-09-13T05:40:20;96898.59;;;15.98;82.78
34297;BME280;20564;42.902;25.336;2022-09-13T05:42:52;96879.00;;;16.29;81.72
34297;BME280;20564;42.902;25.336;2022-09-13T05:45:21;96881.44;;;16.60;80.90
34297;BME280;20564;42.902;25.336;2022-09-13T05:47:50;96883.69;;;16.93;81.01
34297;BME280;20564;42.902;25.336;2022-09-13T05:50:19;96885.84;;;17.19;76.62
34297;BME280;20564;42.902;25.336;2022-09-13T05:53:09;96888.47;;;17.40;74.45
34297;BME280;20564;42.902;25.336;2022-09-13T05:55:38;96890.38;;;17.68;74.59
34297;BME280;20564;42.902;25.336;2022-09-13T05:58:06;96886.28;;;17.93;72.29
34297;BME280;20564;42.902;25.336;2022-09-13T06:00:37;96879.41;;;18.05;71.10
34297;BME280;20564;42.902;25.336;2022-09-13T06:03:05;96882.22;;;18.25;69.45
34297;BME280;20564;42.902;25.336;2022-09-13T06:05:34;96891.28;;;18.38;68.88
34297;BME280;20564;42.902;25.336;2022-09-13T06:08:02;96889.13;;;18.54;68.64
34297;BME280;20564;42.902;25.336;2022-09-13T06:10:29;96883.22;;;18.66;67.58
34297;BME280;20564;42.902;25.336;2022-09-13T06:12:58;96882.44;;;18.72;66.83
34297;BME280;20564;42.902;25.336;2022-09-13T06:15:30;96879.84;;;18.85;66.35
34297;BME280;20564;42.902;25.336;2022-09-13T06:17:59;96884.84;;;19.01;65.19
34297;BME280;20564;42.902;25.336;2022-09-13T06:20:34;96889.59;;;19.13;64.78
34297;BME280;20564;42.902;25.336;2022-09-13T06:23:02;96882.63;;;19.25;64.44
34297;BME280;20564;42.902;25.336;2022-09-13T06:25:31;96893.31;;;19.45;65.76
34297;BME280;20564;42.902;25.336;2022-09-13T06:28:03;96892.16;;;19.67;63.63
34297;BME280;20564;42.902;25.336;2022-09-13T06:30:41;96894.81;;;19.94;63.59
34297;BME280;20564;42.902;25.336;2022-09-13T06:33:14;96886.38;;;20.10;61.98
34297;BME280;20564;42.902;25.336;2022-09-13T06:35:42;96877.75;;;20.15;62.00
34297;BME280;20564;42.902;25.336;2022-09-13T06:38:13;96887.97;;;20.24;61.42
34297;BME280;20564;42.902;25.336;2022-09-13T06:40:42;96896.00;;;20.31;60.83
34297;BME280;20564;42.902;25.336;2022-09-13T06:43:21;96890.44;;;20.33;60.95
34297;BME280;20564;42.902;25.336;2022-09-13T06:45:51;96898.66;;;20.31;60.09
34297;BME280;20564;42.902;25.336;2022-09-13T06:48:29;96900.09;;;20.40;59.99
34297;BME280;20564;42.902;25.336;2022-09-13T06:51:12;96901.75;;;20.35;58.98
34297;BME280;20564;42.902;25.336;2022-09-13T06:53:44;96896.38;;;20.41;59.47
34297;BME280;20564;42.902;25.336;2022-09-13T06:56:17;96909.53;;;20.36;59.34
34297;BME280;20564;42.902;25.336;2022-09-13T06:58:49;96907.91;;;20.35;58.95
34297;BME280;20564;42.902;25.336;2022-09-13T07:01:21;96918.41;;;20.50;59.55
34297;BME280;20564;42.902;25.336;2022-09-13T07:03:52;96909.69;;;20.75;59.17
34297;BME280;20564;42.902;25.336;2022-09-13T07:06:29;96916.66;;;20.82;57.86
34297;BME280;20564;42.902;25.336;2022-09-13T07:09:04;96926.78;;;20.67;57.86
34297;BME280;20564;42.902;25.336;2022-09-13T07:11:55;96933.63;;;20.56;57.97
34297;BME280;20564;42.902;25.336;2022-09-13T07:14:26;96938.13;;;20.42;58.12
34297;BME280;20564;42.902;25.336;2022-09-13T07:16:58;96932.38;;;20.45;58.54
34297;BME280;20564;42.902;25.336;2022-09-13T07:19:31;96934.19;;;20.71;57.71
34297;BME280;20564;42.902;25.336;2022-09-13T07:22:38;96942.53;;;20.95;57.54
34297;BME280;20564;42.902;25.336;2022-09-13T07:25:08;96943.50;;;21.14;57.03
34297;BME280;20564;42.902;25.336;2022-09-13T07:27:37;96937.41;;;21.38;55.47
34297;BME280;20564;42.902;25.336;2022-09-13T07:30:09;96936.97;;;21.41;53.98
34297;BME280;20564;42.902;25.336;2022-09-13T07:32:38;96936.53;;;21.51;53.53
34297;BME280;20564;42.902;25.336;2022-09-13T07:35:08;96936.25;;;21.59;52.77
34297;BME280;20564;42.902;25.336;2022-09-13T07:37:38;96942.44;;;21.60;53.25
34297;BME280;20564;42.902;25.336;2022-09-13T07:40:10;96946.09;;;21.72;52.83
34297;BME280;20564;42.902;25.336;2022-09-13T07:42:39;96943.91;;;22.12;53.49
34297;BME280;20564;42.902;25.336;2022-09-13T07:45:08;96933.34;;;22.43;51.76
34297;BME280;20564;42.902;25.336;2022-09-13T07:47:37;96936.78;;;22.50;50.85
34297;BME280;20564;42.902;25.336;2022-09-13T07:50:06;96948.41;;;22.62;51.36
34297;BME280;20564;42.902;25.336;2022-09-13T07:52:35;96940.97;;;22.64;50.39
34297;BME280;20564;42.902;25.336;2022-09-13T07:55:05;96950.56;;;22.53;49.82
34297;BME280;20564;42.902;25.336;2022-09-13T07:57:43;96938.03;;;22.47;49.66
34297;BME280;20564;42.902;25.336;2022-09-13T08:00:21;96947.09;;;22.71;50.97
34297;BME280;20564;42.902;25.336;2022-09-13T08:02:56;96948.78;;;22.66;49.35
34297;BME280;20564;42.902;25.336;2022-09-13T08:05:27;96946.63;;;22.74;49.29
34297;BME280;20564;42.902;25.336;2022-09-13T08:07:59;96941.84;;;22.58;49.06
34297;BME280;20564;42.902;25.336;2022-09-13T08:10:28;96941.53;;;22.48;50.05
34297;BME280;20564;42.902;25.336;2022-09-13T08:12:56;96946.72;;;22.68;49.99
34297;BME280;20564;42.902;25.336;2022-09-13T08:15:28;96944.84;;;22.86;49.23
34297;BME280;20564;42.902;25.336;2022-09-13T08:17:57;96937.84;;;22.85;49.22
34297;BME280;20564;42.902;25.336;2022-09-13T08:20:26;96933.38;;;22.98;49.33
34297;BME280;20564;42.902;25.336;2022-09-13T08:22:54;96938.94;;;22.78;48.54
34297;BME280;20564;42.902;25.336;2022-09-13T08:25:26;96935.09;;;22.30;49.28
34297;BME280;20564;42.902;25.336;2022-09-13T08:27:57;96943.19;;;22.49;49.79
34297;BME280;20564;42.902;25.336;2022-09-13T08:30:26;96946.97;;;22.41;49.58
34297;BME280;20564;42.902;25.336;2022-09-13T08:33:00;96950.97;;;22.07;49.59
34297;BME280;20564;42.902;25.336;2022-09-13T08:35:30;96942.09;;;21.81;50.09
34297;BME280;20564;42.902;25.336;2022-09-13T08:38:09;96940.09;;;21.70;50.90
34297;BME280;20564;42.902;25.336;2022-09-13T08:40:43;96941.50;;;21.79;50.29
34297;BME280;20564;42.902;25.336;2022-09-13T08:43:39;96938.13;;;21.90;50.02
34297;BME280;20564;42.902;25.336;2022-09-13T08:46:26;96932.34;;;22.12;49.77
34297;BME280;20564;42.902;25.336;2022-09-13T08:49:21;96929.94;;;22.54;49.29
34297;BME280;20564;42.902;25.336;2022-09-13T08:51:57;96927.63;;;22.76;47.88
34297;BME280;20564;42.902;25.336;2022-09-13T08:54:29;96919.72;;;22.62;48.60
34297;BME280;20564;42.902;25.336;2022-09-13T09:05:53;96923.72;;;22.10;49.06
34297;BME280;20564;42.902;25.336;2022-09-13T09:08:40;96920.88;;;21.80;49.57
34297;BME280;20564;42.902;25.336;2022-09-13T09:14:27;96916.22;;;21.30;51.63
34297;BME280;20564;42.902;25.336;2022-09-13T09:17:13;96927.44;;;21.14;52.51
34297;BME280;20564;42.902;25.336;2022-09-13T09:22:55;96909.34;;;21.48;53.94
34297;BME280;20564;42.902;25.336;2022-09-13T09:25:31;96922.56;;;21.74;53.06
34297;BME280;20564;42.902;25.336;2022-09-13T09:28:10;96910.88;;;21.69;51.96
34297;BME280;20564;42.902;25.336;2022-09-13T09:38:52;96896.53;;;22.31;49.92
34297;BME280;20564;42.902;25.336;2022-09-13T09:41:31;96894.59;;;22.38;50.08
34297;BME280;20564;42.902;25.336;2022-09-13T09:44:27;96885.94;;;22.36;49.68
34297;BME280;20564;42.902;25.336;2022-09-13T09:47:09;96875.22;;;22.73;49.16
34297;BME280;20564;42.902;25.336;2022-09-13T09:49:54;96878.66;;;22.99;47.49
34297;BME280;20564;42.902;25.336;2022-09-13T09:53:17;96877.59;;;23.18;47.27
34297;BME280;20564;42.902;25.336;2022-09-13T09:59:28;96869.22;;;23.80;45.00
34297;BME280;20564;42.902;25.336;2022-09-13T10:02:16;96868.44;;;24.03;44.09
34297;BME280;20564;42.902;25.336;2022-09-13T10:04:55;96876.16;;;24.11;43.93
34297;BME280;20564;42.902;25.336;2022-09-13T10:10:06;96889.56;;;23.46;45.99
34297;BME280;20564;42.902;25.336;2022-09-13T10:12:52;96882.47;;;23.21;44.73
34297;BME280;20564;42.902;25.336;2022-09-13T10:15:32;96876.66;;;23.24;45.52
34297;BME280;20564;42.902;25.336;2022-09-13T10:18:17;96874.13;;;23.71;44.11
34297;BME280;20564;42.902;25.336;2022-09-13T10:23:48;96860.47;;;24.08;42.79
34297;BME280;20564;42.902;25.336;2022-09-13T10:26:25;96863.25;;;24.37;42.49
34297;BME280;20564;42.902;25.336;2022-09-13T10:29:05;96855.31;;;24.42;41.85
34297;BME280;20564;42.902;25.336;2022-09-13T10:31:40;96868.19;;;24.16;42.22
34297;BME280;20564;42.902;25.336;2022-09-13T10:34:19;96877.63;;;23.83;43.37
34297;BME280;20564;42.902;25.336;2022-09-13T10:37:11;96868.91;;;23.58;43.60
34297;BME280;20564;42.902;25.336;2022-09-13T10:39:56;96869.34;;;23.73;44.65
34297;BME280;20564;42.902;25.336;2022-09-13T10:42:28;96873.66;;;23.74;43.73
34297;BME280;20564;42.902;25.336;2022-09-13T10:45:04;96873.94;;;23.54;43.66
34297;BME280;20564;42.902;25.336;2022-09-13T10:50:26;96871.13;;;23.07;44.75
34297;BME280;20564;42.902;25.336;2022-09-13T10:52:59;96860.47;;;23.01;45.18
34297;BME280;20564;42.902;25.336;2022-09-13T10:55:37;96862.22;;;22.88;44.50
34297;BME280;20564;42.902;25.336;2022-09-13T10:58:19;96865.50;;;22.91;45.43
34297;BME280;20564;42.902;25.336;2022-09-13T11:20:26;96854.16;;;24.61;40.32
34297;BME280;20564;42.902;25.336;2022-09-13T11:26:04;96850.41;;;25.48;39.54
34297;BME280;20564;42.902;25.336;2022-09-13T11:38:38;96830.31;;;26.06;36.72
34297;BME280;20564;42.902;25.336;2022-09-13T11:44:27;96843.09;;;25.15;37.91
34297;BME280;20564;42.902;25.336;2022-09-13T11:47:57;96838.84;;;25.19;38.24
34297;BME280;20564;42.902;25.336;2022-09-13T11:56:45;96824.97;;;25.10;36.49
34297;BME280;20564;42.902;25.336;2022-09-13T11:59:49;96834.13;;;24.97;36.77
34297;BME280;20564;42.902;25.336;2022-09-13T12:02:28;96825.56;;;24.60;36.66
34297;BME280;20564;42.902;25.336;2022-09-13T12:05:23;96829.81;;;24.33;38.03
34297;BME280;20564;42.902;25.336;2022-09-13T12:13:42;96844.09;;;23.74;39.96
34297;BME280;20564;42.902;25.336;2022-09-13T12:16:22;96840.06;;;23.65;40.01
34297;BME280;20564;42.902;25.336;2022-09-13T12:18:57;96841.94;;;23.53;40.39
34297;BME280;20564;42.902;25.336;2022-09-13T12:21:36;96826.81;;;23.70;39.40
34297;BME280;20564;42.902;25.336;2022-09-13T12:30:15;96820.59;;;24.17;38.63
34297;BME280;20564;42.902;25.336;2022-09-13T12:32:48;96815.09;;;24.47;37.58
34297;BME280;20564;42.902;25.336;2022-09-13T12:35:42;96819.94;;;24.73;36.93
34297;BME280;20564;42.902;25.336;2022-09-13T12:44:24;96817.56;;;24.01;37.07
34297;BME280;20564;42.902;25.336;2022-09-13T12:47:37;96819.97;;;23.56;37.67
34297;BME280;20564;42.902;25.336;2022-09-13T12:50:28;96821.31;;;23.23;39.27
34297;BME280;20564;42.902;25.336;2022-09-13T12:53:30;96821.22;;;23.00;39.51
34297;BME280;20564;42.902;25.336;2022-09-13T13:03:05;96818.88;;;22.92;39.70
34297;BME280;20564;42.902;25.336;2022-09-13T13:05:45;96816.59;;;22.88;40.53
34297;BME280;20564;42.902;25.336;2022-09-13T13:11:05;96819.97;;;23.02;40.87
34297;BME280;20564;42.902;25.336;2022-09-13T13:13:42;96816.72;;;23.12;40.37
34297;BME280;20564;42.902;25.336;2022-09-13T13:16:31;96820.06;;;23.26;40.60
34297;BME280;20564;42.902;25.336;2022-09-13T13:19:27;96819.56;;;23.29;40.39
34297;BME280;20564;42.902;25.336;2022-09-13T13:25:31;96825.50;;;23.19;40.64
34297;BME280;20564;42.902;25.336;2022-09-13T13:28:01;96832.16;;;23.17;40.26
34297;BME280;20564;42.902;25.336;2022-09-13T13:30:49;96827.88;;;23.27;39.63
34297;BME280;20564;42.902;25.336;2022-09-13T13:33:53;96834.22;;;23.45;39.88
34297;BME280;20564;42.902;25.336;2022-09-13T13:36:44;96824.91;;;23.59;40.55
34297;BME280;20564;42.902;25.336;2022-09-13T13:41:59;96840.25;;;23.82;39.18
34297;BME280;20564;42.902;25.336;2022-09-13T13:55:01;96836.44;;;23.06;39.80
34297;BME280;20564;42.902;25.336;2022-09-13T14:00:15;96833.72;;;22.94;41.56
34297;BME280;20564;42.902;25.336;2022-09-13T14:06:06;96838.44;;;23.10;41.27
34297;BME280;20564;42.902;25.336;2022-09-13T14:11:50;96841.31;;;23.39;41.00
34297;BME280;20564;42.902;25.336;2022-09-13T14:17:29;96845.09;;;23.62;40.69
34297;BME280;20564;42.902;25.336;2022-09-13T14:20:10;96858.03;;;23.41;40.17
34297;BME280;20564;42.902;25.336;2022-09-13T14:22:47;96845.47;;;23.23;40.66
34297;BME280;20564;42.902;25.336;2022-09-13T14:25:24;96850.91;;;23.05;40.99
34297;BME280;20564;42.902;25.336;2022-09-13T14:27:57;96852.09;;;22.91;42.24
34297;BME280;20564;42.902;25.336;2022-09-13T14:30:37;96852.34;;;22.89;41.95
34297;BME280;20564;42.902;25.336;2022-09-13T14:33:23;96847.78;;;22.90;41.19
34297;BME280;20564;42.902;25.336;2022-09-13T14:36:04;96849.00;;;22.94;42.29
34297;BME280;20564;42.902;25.336;2022-09-13T14:38:35;96849.03;;;22.87;41.43
34297;BME280;20564;42.902;25.336;2022-09-13T14:41:20;96849.44;;;22.72;42.19
34297;BME280;20564;42.902;25.336;2022-09-13T14:43:50;96853.56;;;22.56;43.26
34297;BME280;20564;42.902;25.336;2022-09-13T14:46:36;96853.34;;;22.39;43.55
34297;BME280;20564;42.902;25.336;2022-09-13T14:49:12;96852.44;;;22.27;43.23
34297;BME280;20564;42.902;25.336;2022-09-13T14:52:00;96848.22;;;22.13;43.99
34297;BME280;20564;42.902;25.336;2022-09-13T14:54:41;96848.34;;;22.00;44.39
34297;BME280;20564;42.902;25.336;2022-09-13T14:57:41;96846.38;;;21.88;45.17
34297;BME280;20564;42.902;25.336;2022-09-13T15:00:20;96866.31;;;21.74;47.89
34297;BME280;20564;42.902;25.336;2022-09-13T15:03:11;96859.41;;;21.60;46.02
34297;BME280;20564;42.902;25.336;2022-09-13T15:05:53;96858.47;;;21.48;47.35
34297;BME280;20564;42.902;25.336;2022-09-13T15:11:05;96859.19;;;21.36;49.12
34297;BME280;20564;42.902;25.336;2022-09-13T15:13:39;96855.47;;;21.31;45.52
34297;BME280;20564;42.902;25.336;2022-09-13T15:16:31;96853.44;;;21.26;43.60
34297;BME280;20564;42.902;25.336;2022-09-13T15:22:01;96850.53;;;21.34;42.53
34297;BME280;20564;42.902;25.336;2022-09-13T15:24:33;96850.09;;;21.37;42.37
34297;BME280;20564;42.902;25.336;2022-09-13T15:27:15;96849.53;;;21.29;41.72
34297;BME280;20564;42.902;25.336;2022-09-13T15:29:56;96850.91;;;21.31;41.93
34297;BME280;20564;42.902;25.336;2022-09-13T15:32:43;96849.88;;;21.64;41.63
34297;BME280;20564;42.902;25.336;2022-09-13T15:35:29;96846.72;;;21.99;40.05
34297;BME280;20564;42.902;25.336;2022-09-13T15:38:30;96850.72;;;22.08;40.77
34297;BME280;20564;42.902;25.336;2022-09-13T15:41:12;96852.50;;;21.96;42.04
34297;BME280;20564;42.902;25.336;2022-09-13T15:43:42;96859.75;;;21.70;42.38
34297;BME280;20564;42.902;25.336;2022-09-13T15:46:14;96867.78;;;21.38;43.09
34297;BME280;20564;42.902;25.336;2022-09-13T15:49:05;96856.81;;;21.15;43.53
34297;BME280;20564;42.902;25.336;2022-09-13T15:51:34;96863.44;;;21.06;42.72
34297;BME280;20564;42.902;25.336;2022-09-13T15:54:11;96861.50;;;20.88;44.71
34297;BME280;20564;42.902;25.336;2022-09-13T15:56:43;96865.22;;;20.80;44.06
34297;BME280;20564;42.902;25.336;2022-09-13T15:59:19;96877.19;;;20.71;44.59
34297;BME280;20564;42.902;25.336;2022-09-13T16:01:52;96872.31;;;20.55;46.57
34297;BME280;20564;42.902;25.336;2022-09-13T16:04:24;96876.81;;;20.47;47.09
34297;BME280;20564;42.902;25.336;2022-09-13T16:06:54;96881.19;;;20.35;47.31
34297;BME280;20564;42.902;25.336;2022-09-13T16:09:28;96886.75;;;20.27;48.35
34297;BME280;20564;42.902;25.336;2022-09-13T16:12:03;96884.09;;;20.14;50.01
34297;BME280;20564;42.902;25.336;2022-09-13T16:14:35;96887.41;;;19.96;51.70
34297;BME280;20564;42.902;25.336;2022-09-13T16:17:14;96888.88;;;19.79;54.17
34297;BME280;20564;42.902;25.336;2022-09-13T16:19:50;96880.81;;;19.59;55.48
34297;BME280;20564;42.902;25.336;2022-09-13T16:22:19;96890.88;;;19.50;56.06
34297;BME280;20564;42.902;25.336;2022-09-13T16:24:55;96882.44;;;19.40;57.45
34297;BME280;20564;42.902;25.336;2022-09-13T16:27:26;96890.81;;;19.30;57.63
34297;BME280;20564;42.902;25.336;2022-09-13T16:30:00;96891.81;;;19.09;58.11
34297;BME280;20564;42.902;25.336;2022-09-13T16:32:33;96887.06;;;18.98;59.43
34297;BME280;20564;42.902;25.336;2022-09-13T16:35:02;96895.66;;;18.93;60.14
34297;BME280;20564;42.902;25.336;2022-09-13T16:37:31;96899.94;;;18.81;60.73
34297;BME280;20564;42.902;25.336;2022-09-13T16:40:07;96898.41;;;18.65;61.06
34297;BME280;20564;42.902;25.336;2022-09-13T16:42:40;96896.88;;;18.49;61.29
34297;BME280;20564;42.902;25.336;2022-09-13T16:45:15;96901.13;;;18.37;62.69
34297;BME280;20564;42.902;25.336;2022-09-13T16:47:45;96895.47;;;18.19;63.82
34297;BME280;20564;42.902;25.336;2022-09-13T16:50:22;96907.06;;;18.04;64.44
34297;BME280;20564;42.902;25.336;2022-09-13T16:52:52;96904.50;;;17.90;65.46